createdAt,value
2019-05-23T00:01:34.227Z,61.40
2019-05-23T00:04:14.955Z,61.40
2019-05-23T00:06:49.103Z,61.40
2019-05-23T00:09:21.920Z,61.50
2019-05-23T00:12:12.676Z,61.40
2019-05-23T00:14:53.630Z,61.30
2019-05-23T00:17:32.194Z,61.20
2019-05-23T00:20:07.417Z,61.50
2019-05-23T00:22:40.820Z,61.60
2019-05-23T00:25:14.408Z,61.40
2019-05-23T00:27:48.135Z,61.20
2019-05-23T00:30:38.200Z,61.20
2019-05-23T00:33:13.141Z,61.30
2019-05-23T00:35:46.697Z,61.30
2019-05-23T00:38:19.583Z,61.10
2019-05-23T00:40:53.322Z,61.00
2019-05-23T00:43:27.586Z,61.20
2019-05-23T00:46:07.000Z,61.10
2019-05-23T00:48:40.835Z,60.70
2019-05-23T00:51:19.411Z,60.60
2019-05-23T00:53:52.871Z,60.70
2019-05-23T00:56:27.741Z,60.70
2019-05-23T00:59:01.490Z,60.90
2019-05-23T01:01:34.053Z,60.80
2019-05-23T01:04:06.828Z,60.70
2019-05-23T01:06:39.199Z,60.90
2019-05-23T01:09:12.118Z,61.00
2019-05-23T01:11:47.362Z,61.10
2019-05-23T01:14:21.963Z,61.50
2019-05-23T01:16:54.592Z,61.80
2019-05-23T01:19:27.772Z,61.60
2019-05-23T01:22:03.944Z,61.30
2019-05-23T01:24:50.303Z,61.10
2019-05-23T01:27:22.430Z,60.90
2019-05-23T01:29:56.323Z,60.60
2019-05-23T01:32:40.503Z,60.90
2019-05-23T01:35:14.837Z,60.70
2019-05-23T01:37:48.651Z,60.60
2019-05-23T01:40:21.794Z,60.90
2019-05-23T01:42:54.165Z,60.80
2019-05-23T01:45:26.897Z,60.70
2019-05-23T01:47:59.134Z,60.60
2019-05-23T01:50:31.171Z,60.50
2019-05-23T01:53:03.480Z,60.50
2019-05-23T01:55:35.475Z,60.50
2019-05-23T01:58:07.858Z,60.60
2019-05-23T02:00:41.901Z,60.40
2019-05-23T02:03:16.017Z,60.10
2019-05-23T02:05:50.003Z,59.90
2019-05-23T02:08:22.588Z,59.80
2019-05-23T02:10:55.094Z,59.80
2019-05-23T02:13:27.392Z,59.80
2019-05-23T02:16:00.978Z,59.80
2019-05-23T02:18:34.056Z,60.10
2019-05-23T02:21:07.698Z,60.00
2019-05-23T02:23:40.214Z,59.90
2019-05-23T02:26:12.799Z,60.20
2019-05-23T02:28:45.195Z,60.30
2019-05-23T02:31:21.241Z,60.30
2019-05-23T02:33:53.525Z,60.30
2019-05-23T02:36:26.029Z,60.50
2019-05-23T02:39:20.631Z,60.60
2019-05-23T02:42:15.657Z,60.50
2019-05-23T02:44:51.312Z,59.90
2019-05-23T02:47:34.233Z,60.20
2019-05-23T02:50:07.539Z,60.50
2019-05-23T02:52:46.609Z,60.50
2019-05-23T02:55:31.964Z,60.50
2019-05-23T02:58:26.271Z,60.50
2019-05-23T03:01:43.103Z,60.20
2019-05-23T03:04:18.040Z,60.30
2019-05-23T03:06:51.949Z,59.90
2019-05-23T03:09:27.397Z,60.10
2019-05-23T03:12:04.025Z,60.10
2019-05-23T03:14:38.275Z,59.90
2019-05-23T03:17:14.144Z,59.70
2019-05-23T03:19:56.988Z,59.60
2019-05-23T03:22:40.198Z,59.40
2019-05-23T03:26:06.060Z,59.70
2019-05-23T03:28:42.580Z,59.80
2019-05-23T03:31:38.608Z,60.00
2019-05-23T03:34:20.561Z,60.30
2019-05-23T03:36:58.367Z,60.30
2019-05-23T03:39:33.830Z,60.30
2019-05-23T03:42:07.705Z,60.40
2019-05-23T04:05:52.959Z,60.80
2019-05-23T04:09:12.579Z,60.80
2019-05-23T04:12:30.600Z,60.90
2019-05-23T04:15:19.735Z,61.00
2019-05-23T04:18:49.117Z,60.90
2019-05-23T04:21:38.649Z,61.70
2019-05-23T04:24:37.731Z,61.00
2019-05-23T04:27:44.175Z,61.40
2019-05-23T04:30:52.549Z,61.40
2019-05-23T04:38:24.213Z,61.20
2019-05-23T04:41:39.373Z,61.00
2019-05-23T04:48:05.364Z,61.30
2019-05-23T04:50:55.270Z,61.50
2019-05-23T04:54:07.665Z,61.60
2019-05-23T04:56:39.799Z,61.50
2019-05-23T04:59:11.670Z,61.60
2019-05-23T05:01:43.901Z,61.60
2019-05-23T05:04:16.215Z,61.20
2019-05-23T05:06:48.571Z,61.10
2019-05-23T05:09:32.180Z,61.00
2019-05-23T05:12:05.057Z,61.20
2019-05-23T05:14:37.573Z,61.00
2019-05-23T05:17:11.575Z,61.20
2019-05-23T05:19:44.028Z,62.30
2019-05-23T05:22:16.791Z,61.60
2019-05-23T05:24:49.359Z,61.20
2019-05-23T05:27:23.195Z,61.30
2019-05-23T05:29:55.758Z,61.00
2019-05-23T05:32:43.146Z,61.00
2019-05-23T05:35:01.586Z,61.30
2019-05-23T05:37:33.631Z,60.50
2019-05-23T05:40:08.400Z,60.80
2019-05-23T05:42:41.834Z,60.90
2019-05-23T05:45:15.021Z,60.70
2019-05-23T05:47:47.139Z,60.70
2019-05-23T05:50:19.757Z,60.90
2019-05-23T05:52:52.019Z,61.20
2019-05-23T05:55:24.127Z,61.20
2019-05-23T05:57:56.173Z,60.80
2019-05-23T06:00:45.626Z,59.80
2019-05-23T06:03:17.654Z,60.30
2019-05-23T06:05:56.600Z,60.00
2019-05-23T06:08:29.085Z,59.30
2019-05-23T06:11:01.670Z,59.60
2019-05-23T06:13:34.257Z,59.00
2019-05-23T06:16:06.198Z,58.40
2019-05-23T06:18:38.594Z,58.80
2019-05-23T06:21:12.638Z,58.40
2019-05-23T06:23:45.066Z,58.20
2019-05-23T06:26:17.585Z,57.60
2019-05-23T06:28:50.020Z,56.20
2019-05-23T06:31:23.410Z,56.00
2019-05-23T06:33:55.813Z,55.10
2019-05-23T06:36:28.162Z,55.30
2019-05-23T06:39:00.535Z,55.60
2019-05-23T06:41:33.111Z,54.70
2019-05-23T06:44:05.845Z,54.40
2019-05-23T06:46:37.940Z,54.70
2019-05-23T06:49:10.502Z,53.70
2019-05-23T06:51:43.317Z,54.80
2019-05-23T06:54:15.784Z,53.30
2019-05-23T06:56:48.229Z,52.40
2019-05-23T06:59:20.411Z,50.40
2019-05-23T07:01:52.570Z,48.20
2019-05-23T07:04:25.051Z,46.40
2019-05-23T07:06:56.931Z,43.50
2019-05-23T07:09:29.280Z,43.90
2019-05-23T07:12:01.952Z,41.50
2019-05-23T07:14:34.670Z,42.30
2019-05-23T07:17:06.723Z,40.80
2019-05-23T07:19:39.703Z,40.70
2019-05-23T07:22:12.622Z,39.70
2019-05-23T07:24:57.643Z,39.60
2019-05-23T07:27:18.782Z,37.60
2019-05-23T07:29:51.238Z,37.70
2019-05-23T07:32:23.633Z,36.80
2019-05-23T07:34:56.138Z,35.40
2019-05-23T07:37:28.975Z,36.50
2019-05-23T07:40:00.973Z,35.60
2019-05-23T07:42:33.404Z,35.60
2019-05-23T07:45:07.265Z,33.50
2019-05-23T07:47:40.321Z,32.00
2019-05-23T07:50:13.867Z,32.80
2019-05-23T07:52:46.489Z,30.10
2019-05-23T07:55:43.455Z,31.10
2019-05-23T07:58:17.410Z,30.60
2019-05-23T08:00:54.816Z,26.70
2019-05-23T08:03:30.042Z,27.50
2019-05-23T08:06:05.179Z,27.90
2019-05-23T08:08:40.531Z,27.20
2019-05-23T08:11:12.427Z,27.70
2019-05-23T08:13:44.390Z,26.70
2019-05-23T08:16:16.919Z,27.60
2019-05-23T08:18:49.117Z,26.00
2019-05-23T08:21:22.230Z,25.20
2019-05-23T08:23:54.546Z,24.50
2019-05-23T08:26:27.898Z,25.40
2019-05-23T08:29:24.131Z,27.50
2019-05-23T08:31:33.572Z,24.40
2019-05-23T08:34:06.364Z,24.30
2019-05-23T08:36:38.396Z,24.80
2019-05-23T08:39:10.880Z,27.20
2019-05-23T08:41:43.776Z,26.40
2019-05-23T08:44:15.963Z,26.00
2019-05-23T08:46:47.914Z,24.90
2019-05-23T08:49:21.256Z,25.20
2019-05-23T08:51:54.000Z,24.40
2019-05-23T08:54:26.427Z,25.30
2019-05-23T08:56:58.744Z,25.30
2019-05-23T08:59:31.724Z,23.30
2019-05-23T09:02:04.590Z,24.70
2019-05-23T09:04:36.526Z,23.00
2019-05-23T09:07:10.420Z,24.30
2019-05-23T09:09:43.517Z,22.90
2019-05-23T09:12:15.425Z,23.10
2019-05-23T09:14:47.902Z,23.70
2019-05-23T09:17:20.431Z,23.90
2019-05-23T09:19:52.386Z,23.60
2019-05-23T09:22:24.977Z,21.50
2019-05-23T09:24:57.144Z,21.70
2019-05-23T09:27:29.236Z,21.30
2019-05-23T09:30:01.220Z,21.00
2019-05-23T09:32:33.911Z,20.50
2019-05-23T09:35:20.068Z,22.40
2019-05-23T09:37:40.753Z,21.90
2019-05-23T09:40:13.266Z,22.30
2019-05-23T09:42:45.165Z,22.80
2019-05-23T09:45:18.456Z,20.40
2019-05-23T09:47:51.542Z,19.90
2019-05-23T09:50:24.568Z,22.30
2019-05-23T09:52:56.773Z,23.40
2019-05-23T09:55:29.331Z,22.90
2019-05-23T09:58:01.552Z,23.40
2019-05-23T10:00:35.317Z,21.50
2019-05-23T10:03:07.265Z,21.90
2019-05-23T10:05:43.324Z,21.10
2019-05-23T10:08:13.119Z,22.20
2019-05-23T10:10:45.651Z,23.40
2019-05-23T10:13:18.299Z,21.00
2019-05-23T10:15:58.992Z,21.50
2019-05-23T10:18:30.885Z,20.50
2019-05-23T10:21:03.125Z,21.60
2019-05-23T10:23:36.228Z,20.60
2019-05-23T10:26:08.212Z,20.70
2019-05-23T10:28:40.730Z,20.60
2019-05-23T10:31:14.001Z,21.70
2019-05-23T10:33:45.892Z,22.50
2019-05-23T10:36:17.748Z,21.60
2019-05-23T10:38:49.685Z,20.40
2019-05-23T10:41:21.556Z,21.10
2019-05-23T10:43:53.727Z,22.60
2019-05-23T10:46:25.772Z,21.40
2019-05-23T10:48:57.658Z,23.40
2019-05-23T10:51:29.514Z,23.00
2019-05-23T10:54:01.739Z,21.20
2019-05-23T10:56:33.591Z,21.00
2019-05-23T10:59:05.754Z,19.80
2019-05-23T11:01:38.073Z,21.00
2019-05-23T11:04:10.082Z,20.90
2019-05-23T11:06:43.019Z,22.20
2019-05-23T11:09:15.677Z,20.80
2019-05-23T11:11:47.772Z,22.80
2019-05-23T11:14:20.120Z,18.40
2019-05-23T11:16:53.793Z,18.60
2019-05-23T11:19:25.700Z,19.20
2019-05-23T11:21:57.521Z,18.80
2019-05-23T11:24:29.767Z,18.60
2019-05-23T11:27:01.616Z,20.40
2019-05-23T11:29:34.567Z,19.10
2019-05-23T11:32:08.210Z,19.60
2019-05-23T11:34:40.377Z,18.90
2019-05-23T11:37:12.489Z,18.70
2019-05-23T11:39:49.533Z,18.60
2019-05-23T11:42:19.779Z,17.70
2019-05-23T11:44:52.051Z,19.10
2019-05-23T11:47:24.249Z,18.00
2019-05-23T11:49:56.573Z,18.40
2019-05-23T11:52:28.706Z,17.40
2019-05-23T11:55:01.633Z,18.10
2019-05-23T11:57:37.297Z,16.60
2019-05-23T12:00:09.476Z,15.70
2019-05-23T12:02:42.764Z,16.40
2019-05-23T12:05:19.294Z,17.00
2019-05-23T12:07:51.463Z,16.30
2019-05-23T12:10:24.449Z,16.00
2019-05-23T12:12:56.623Z,15.40
2019-05-23T12:15:30.169Z,15.40
2019-05-23T12:18:05.677Z,15.30
2019-05-23T12:20:38.148Z,15.90
2019-05-23T12:23:11.208Z,15.70
2019-05-23T12:25:43.558Z,15.30
2019-05-23T12:28:16.543Z,14.30
2019-05-23T12:30:48.544Z,14.60
2019-05-23T12:33:21.438Z,15.00
2019-05-23T12:35:53.377Z,16.10
2019-05-23T12:38:25.622Z,16.50
2019-05-23T12:40:57.569Z,18.20
2019-05-23T12:43:29.881Z,15.70
2019-05-23T12:46:02.556Z,15.20
2019-05-23T12:49:08.719Z,15.40
2019-05-23T12:51:42.039Z,14.30
2019-05-23T12:54:14.348Z,15.40
2019-05-23T12:56:49.078Z,14.80
2019-05-23T12:59:20.651Z,13.40
2019-05-23T13:01:56.508Z,14.70
2019-05-23T13:04:29.053Z,13.50
2019-05-23T13:07:01.524Z,13.40
2019-05-23T13:09:34.242Z,13.70
2019-05-23T13:12:06.696Z,12.60
2019-05-23T13:14:38.681Z,13.30
2019-05-23T13:17:10.906Z,13.20
2019-05-23T13:19:43.339Z,13.50
2019-05-23T13:22:15.527Z,12.90
2019-05-23T13:24:52.910Z,15.00
2019-05-23T13:27:23.015Z,13.60
2019-05-23T13:29:55.600Z,12.70
2019-05-23T13:32:27.605Z,13.70
2019-05-23T13:34:59.980Z,11.80
2019-05-23T13:37:32.228Z,11.80
2019-05-23T13:40:04.577Z,12.00
2019-05-23T13:42:36.708Z,11.10
2019-05-23T13:45:09.526Z,12.20
2019-05-23T13:47:41.744Z,12.20
2019-05-23T13:50:14.119Z,11.90
2019-05-23T13:52:46.255Z,11.20
2019-05-23T13:55:18.406Z,11.90
2019-05-23T13:57:50.310Z,12.60
2019-05-23T14:00:23.043Z,11.80
2019-05-23T14:02:54.987Z,11.20
2019-05-23T14:05:27.124Z,11.00
2019-05-23T14:08:11.826Z,12.20
2019-05-23T14:10:33.737Z,11.40
2019-05-23T14:13:05.607Z,11.20
2019-05-23T14:15:42.088Z,11.80
2019-05-23T14:18:17.210Z,11.50
2019-05-23T14:20:49.312Z,12.30
2019-05-23T14:23:32.809Z,12.60
2019-05-23T14:26:05.137Z,11.70
2019-05-23T14:28:37.967Z,12.20
2019-05-23T14:31:18.497Z,12.50
2019-05-23T14:33:54.373Z,11.90
2019-05-23T14:36:44.205Z,11.80
2019-05-23T14:39:24.590Z,12.60
2019-05-23T14:42:05.005Z,12.60
2019-05-23T14:44:37.563Z,13.70
2019-05-23T14:47:27.736Z,12.30
2019-05-23T14:50:17.530Z,12.60
2019-05-23T14:52:52.009Z,12.90
2019-05-23T14:55:25.166Z,12.80
2019-05-23T14:57:57.889Z,12.60
2019-05-23T15:00:30.503Z,12.30
2019-05-23T15:03:03.930Z,12.60
2019-05-23T15:05:36.391Z,12.10
2019-05-23T15:08:08.357Z,12.40
2019-05-23T15:10:40.672Z,12.70
2019-05-23T15:13:12.856Z,13.00
2019-05-23T15:15:45.518Z,13.40
2019-05-23T15:18:17.470Z,13.70
2019-05-23T15:20:50.120Z,13.90
2019-05-23T15:23:22.980Z,14.80
2019-05-23T15:25:55.192Z,15.70
2019-05-23T15:28:27.915Z,15.60
2019-05-23T15:31:00.824Z,15.90
2019-05-23T15:33:32.865Z,16.30
2019-05-23T15:36:07.965Z,15.50
2019-05-23T15:38:40.794Z,15.60
2019-05-23T15:41:12.632Z,15.30
2019-05-23T15:43:45.044Z,15.50
2019-05-23T15:46:17.028Z,16.50
2019-05-23T15:48:49.081Z,15.60
2019-05-23T15:51:25.877Z,15.00
2019-05-23T15:54:08.091Z,15.20
2019-05-23T15:57:01.505Z,15.30
2019-05-23T15:59:42.636Z,15.40
2019-05-23T16:02:19.611Z,16.30
2019-05-23T16:04:55.588Z,16.80
2019-05-23T16:07:32.451Z,17.10
2019-05-23T16:10:05.717Z,17.20
2019-05-23T16:12:38.182Z,17.50
2019-05-23T16:15:10.565Z,17.80
2019-05-23T16:17:43.253Z,18.00
2019-05-23T16:20:15.745Z,17.70
2019-05-23T16:22:49.109Z,17.90
2019-05-23T16:25:21.591Z,18.00
2019-05-23T16:27:54.288Z,18.20
2019-05-23T16:30:26.531Z,17.80
2019-05-23T16:32:58.996Z,19.00
2019-05-23T16:35:32.007Z,19.20
2019-05-23T16:38:05.131Z,20.60
2019-05-23T16:40:37.601Z,21.20
2019-05-23T16:43:10.014Z,21.20
2019-05-23T16:45:42.893Z,22.00
2019-05-23T16:48:15.274Z,22.90
2019-05-23T16:50:49.342Z,22.70
2019-05-23T16:53:22.888Z,21.10
2019-05-23T16:56:10.159Z,20.10
2019-05-23T16:59:03.501Z,20.20
2019-05-23T17:01:57.811Z,21.30
2019-05-23T17:04:30.694Z,21.30
2019-05-23T17:07:40.962Z,21.60
2019-05-23T17:10:35.658Z,21.80
2019-05-23T17:13:33.170Z,22.30
2019-05-23T17:16:23.556Z,22.30
2019-05-23T17:19:04.611Z,22.80
2019-05-23T17:21:50.246Z,23.60
2019-05-23T17:24:39.926Z,24.30
2019-05-23T17:27:31.358Z,25.10
2019-05-23T17:30:24.047Z,25.60
2019-05-23T17:32:56.443Z,25.40
2019-05-23T17:35:29.100Z,25.50
2019-05-23T17:38:01.068Z,26.30
2019-05-23T17:40:33.732Z,26.50
2019-05-23T17:43:05.900Z,25.80
2019-05-23T17:45:38.126Z,26.30
2019-05-23T17:48:10.546Z,26.70
2019-05-23T17:50:43.304Z,26.80
2019-05-23T17:53:15.199Z,27.50
2019-05-23T17:55:47.236Z,27.10
2019-05-23T17:58:20.731Z,27.50
2019-05-23T18:00:53.993Z,27.90
2019-05-23T18:03:26.322Z,28.70
2019-05-23T18:05:59.041Z,28.50
2019-05-23T18:08:32.650Z,28.90
2019-05-23T18:11:05.309Z,29.30
2019-05-23T18:13:38.038Z,29.90
2019-05-23T18:16:12.168Z,30.30
2019-05-23T18:18:44.628Z,31.60
2019-05-23T18:21:16.519Z,33.10
2019-05-23T18:23:48.411Z,34.70
2019-05-23T18:26:20.391Z,35.90
2019-05-23T18:28:52.313Z,36.60
2019-05-23T18:31:27.727Z,37.00
2019-05-23T18:34:01.488Z,37.80
2019-05-23T18:36:35.105Z,37.40
2019-05-23T18:39:13.166Z,37.50
2019-05-23T18:41:45.750Z,37.90
2019-05-23T18:44:18.164Z,38.00
2019-05-23T18:46:53.728Z,38.60
2019-05-23T18:49:27.573Z,39.60
2019-05-23T18:52:00.853Z,39.40
2019-05-23T18:54:33.510Z,39.90
2019-05-23T18:57:05.911Z,41.00
2019-05-23T18:59:38.264Z,41.90
2019-05-23T21:09:22.910Z,56.90
2019-05-23T21:11:55.052Z,57.40
2019-05-23T21:14:28.110Z,57.40
2019-05-23T21:17:00.248Z,57.50
2019-05-23T21:19:33.119Z,57.60
2019-05-23T21:22:05.019Z,57.60
2019-05-23T21:24:37.593Z,57.90
2019-05-23T21:27:09.801Z,57.80
2019-05-23T21:29:43.313Z,57.80
2019-05-23T21:32:15.835Z,57.90
2019-05-23T21:34:48.332Z,57.80
2019-05-23T21:37:21.256Z,57.60
2019-05-23T21:39:53.972Z,57.50
2019-05-23T21:42:25.986Z,57.00
2019-05-23T21:44:58.655Z,57.60
2019-05-23T21:47:30.591Z,57.60
2019-05-23T21:50:02.868Z,57.60
2019-05-23T21:52:38.291Z,57.30
2019-05-23T21:55:13.660Z,57.10
2019-05-23T21:57:45.799Z,57.20
2019-05-23T22:00:32.995Z,57.20
2019-05-23T22:03:05.404Z,57.20
2019-05-23T22:05:38.585Z,57.40
2019-05-23T22:08:10.711Z,57.70
2019-05-23T22:10:43.474Z,57.60
2019-05-23T22:13:15.759Z,57.50
2019-05-23T22:15:48.472Z,57.70
2019-05-23T22:18:20.971Z,57.70
2019-05-23T22:20:53.254Z,57.80
2019-05-23T22:23:27.648Z,57.80
2019-05-23T22:26:02.418Z,58.20
2019-05-23T22:28:34.341Z,58.30
2019-05-23T22:31:09.171Z,58.30
2019-05-23T22:33:45.347Z,58.30
2019-05-23T22:36:18.614Z,58.50
2019-05-23T22:38:50.991Z,58.60
2019-05-23T22:41:24.677Z,58.60
2019-05-23T22:43:57.096Z,58.60
2019-05-23T22:46:30.731Z,59.10
2019-05-23T22:49:03.041Z,58.60
2019-05-23T22:51:34.947Z,58.70
2019-05-23T22:54:07.371Z,58.80
2019-05-23T22:56:39.388Z,58.50
2019-05-23T22:59:14.711Z,58.50
2019-05-23T23:01:48.572Z,58.70
2019-05-23T23:04:21.252Z,58.80
2019-05-23T23:06:53.410Z,58.80
2019-05-23T23:09:25.564Z,58.90
2019-05-23T23:11:58.793Z,58.90
2019-05-23T23:14:31.062Z,58.80
2019-05-23T23:17:03.417Z,59.30
2019-05-23T23:19:35.269Z,58.80
2019-05-23T23:22:07.446Z,59.00
2019-05-23T23:24:39.295Z,58.70
2019-05-23T23:27:11.665Z,58.60
2019-05-23T23:29:43.858Z,58.50
2019-05-23T23:32:16.235Z,58.40
2019-05-23T23:34:48.109Z,58.70
2019-05-23T23:37:20.286Z,58.80
2019-05-23T23:39:52.807Z,58.90
2019-05-23T23:42:24.698Z,58.80
2019-05-23T23:45:14.781Z,59.30
2019-05-23T23:48:04.247Z,58.60
2019-05-23T23:50:54.078Z,58.80
2019-05-23T23:53:44.426Z,59.00
2019-05-23T23:56:34.477Z,59.10
2019-05-23T23:59:05.491Z,59.20
